Time;durP1;ratioP1;P1;durP2;ratioP2;P2;SDS_P1;SDS_P2;PMS_P1;PMS_P2;Temp;Humidity;BMP_temperature;BMP_pressure;BME280_temperature;BME280_humidity;BME280_pressure;Samples;Min_cycle;Max_cycle;Signal;HPM_P1;HPM_P2
2021/10/21 00:02:16;;;;;;;2.83;2.63;;;16.30;68.30;;;;;;4959303;28;20034;-67
2021/10/21 00:04:42;;;;;;;3.28;2.95;;;16.30;68.50;;;;;;4963953;28;20479;-68
2021/10/21 00:07:11;;;;;;;7.05;3.17;;;16.20;68.50;;;;;;4960195;28;20557;-68
2021/10/21 00:09:37;;;;;;;2.97;2.75;;;16.20;68.90;;;;;;4959181;28;20039;-68
2021/10/21 00:12:04;;;;;;;3.15;2.85;;;16.20;69.10;;;;;;4961629;28;20422;-68
2021/10/21 00:14:31;;;;;;;3.83;3.33;;;16.20;69.20;;;;;;4959798;28;20035;-68
2021/10/21 00:16:57;;;;;;;5.07;3.38;;;16.20;69.20;;;;;;4959239;28;20039;-68
2021/10/21 00:19:23;;;;;;;4.38;3.33;;;16.10;69.00;;;;;;4960849;28;20045;-68
2021/10/21 00:21:49;;;;;;;3.38;3.00;;;16.10;69.10;;;;;;4960023;28;20075;-68
2021/10/21 00:24:15;;;;;;;4.05;3.40;;;16.10;69.10;;;;;;4959448;28;20070;-68
2021/10/21 00:26:41;;;;;;;3.45;2.95;;;16.00;69.20;;;;;;4959128;28;20039;-68
2021/10/21 00:29:07;;;;;;;3.47;3.15;;;16.00;69.30;;;;;;4958893;28;20038;-68
2021/10/21 00:31:32;;;;;;;4.63;3.13;;;15.90;69.50;;;;;;4959786;28;20093;-68
2021/10/21 00:33:58;;;;;;;3.55;3.15;;;15.90;69.70;;;;;;4960650;28;20031;-68
2021/10/21 00:36:24;;;;;;;3.25;2.92;;;15.80;69.80;;;;;;4959586;28;20062;-69
2021/10/21 00:38:49;;;;;;;4.63;3.25;;;15.80;69.90;;;;;;4959488;28;20091;-68
2021/10/21 00:41:15;;;;;;;3.42;3.05;;;15.80;69.90;;;;;;4958765;28;20070;-68
2021/10/21 00:43:42;;;;;;;5.85;3.40;;;15.80;70.00;;;;;;4964638;28;20051;-68
2021/10/21 00:46:10;;;;;;;2.92;2.50;;;15.80;70.10;;;;;;4958043;28;20054;-68
2021/10/21 00:48:36;;;;;;;3.60;2.75;;;15.80;70.20;;;;;;4957427;28;21033;-68
2021/10/21 00:51:06;;;;;;;3.17;2.90;;;15.80;70.30;;;;;;4959226;28;20640;-68
2021/10/21 00:53:33;;;;;;;6.38;2.88;;;15.80;70.30;;;;;;4959362;28;20023;-68
2021/10/21 00:55:59;;;;;;;2.95;2.60;;;15.80;70.30;;;;;;4959510;28;20062;-67
2021/10/21 00:58:25;;;;;;;3.13;2.83;;;15.80;70.30;;;;;;4957431;28;20138;-68
2021/10/21 01:00:52;;;;;;;4.70;3.00;;;15.90;70.60;;;;;;4958610;28;20054;-67
2021/10/21 01:03:18;;;;;;;5.00;2.70;;;15.90;70.80;;;;;;4957941;28;20045;-67
2021/10/21 01:05:44;;;;;;;3.60;2.53;;;15.90;70.80;;;;;;4959337;28;20039;-67
2021/10/21 01:08:11;;;;;;;3.22;2.35;;;16.00;71.10;;;;;;4957623;28;20031;-68
2021/10/21 01:10:37;;;;;;;3.63;2.95;;;15.90;71.10;;;;;;4957116;28;20407;-67
2021/10/21 01:13:04;;;;;;;4.78;2.90;;;16.00;71.40;;;;;;4960845;28;20499;-67
2021/10/21 01:15:31;;;;;;;3.42;2.80;;;16.00;71.40;;;;;;4961907;28;20043;-67
2021/10/21 01:17:57;;;;;;;3.42;2.83;;;16.00;71.40;;;;;;4959440;28;20062;-67
2021/10/21 01:20:23;;;;;;;4.47;2.50;;;16.00;71.40;;;;;;4961414;28;20039;-66
2021/10/21 01:22:49;;;;;;;2.70;2.45;;;16.00;71.30;;;;;;4957175;28;20034;-65
2021/10/21 01:25:16;;;;;;;5.15;2.70;;;16.10;71.30;;;;;;4957910;28;20054;-67
2021/10/21 01:27:43;;;;;;;3.75;3.00;;;16.10;71.30;;;;;;4957739;28;20036;-68
2021/10/21 01:30:20;;;;;;;3.15;2.80;;;16.10;71.30;;;;;;4961320;28;20027;-67
2021/10/21 01:32:46;;;;;;;4.03;2.78;;;16.10;71.60;;;;;;4961291;28;20065;-67
2021/10/21 01:35:12;;;;;;;4.63;2.60;;;16.20;71.40;;;;;;4960482;28;20049;-67
2021/10/21 01:37:38;;;;;;;2.92;2.70;;;16.20;71.30;;;;;;4957357;28;20510;-67
2021/10/21 01:40:04;;;;;;;3.63;2.85;;;16.20;71.40;;;;;;4956807;28;20155;-67
2021/10/21 01:42:30;;;;;;;3.47;3.10;;;16.20;71.50;;;;;;4956101;28;20035;-67
2021/10/21 01:44:55;;;;;;;4.00;3.53;;;16.20;71.60;;;;;;4959315;28;20027;-67
2021/10/21 01:47:21;;;;;;;3.40;3.10;;;16.20;71.70;;;;;;4960611;28;20046;-67
2021/10/21 01:49:47;;;;;;;3.70;3.05;;;16.20;71.80;;;;;;4958391;28;20039;-67
2021/10/21 01:52:14;;;;;;;5.00;3.00;;;16.20;71.80;;;;;;4959851;28;20267;-66
2021/10/21 01:54:39;;;;;;;3.97;3.22;;;16.20;72.00;;;;;;4956587;28;20648;-67
2021/10/21 01:57:05;;;;;;;4.25;3.40;;;16.20;72.20;;;;;;4956698;28;20269;-67
2021/10/21 01:59:30;;;;;;;6.22;3.78;;;16.20;72.30;;;;;;4956081;28;20117;-67
2021/10/21 02:01:56;;;;;;;3.40;2.97;;;16.10;72.50;;;;;;4960599;28;20046;-67
2021/10/21 02:04:22;;;;;;;3.38;3.08;;;16.20;72.60;;;;;;4959014;28;20065;-66
2021/10/21 02:06:47;;;;;;;5.32;3.30;;;16.10;72.80;;;;;;4959367;28;20043;-68
2021/10/21 02:09:13;;;;;;;4.18;3.47;;;16.10;73.00;;;;;;4958185;28;20031;-67
2021/10/21 02:11:38;;;;;;;4.97;3.75;;;16.10;73.20;;;;;;4956859;28;20047;-67
2021/10/21 02:14:04;;;;;;;4.10;3.40;;;16.10;73.50;;;;;;4958255;28;20674;-67
2021/10/21 02:16:29;;;;;;;4.00;3.58;;;16.10;73.70;;;;;;4959319;28;20035;-67
2021/10/21 02:18:55;;;;;;;7.57;3.63;;;16.10;73.80;;;;;;4959609;28;20034;-68
2021/10/21 02:21:21;;;;;;;3.85;3.35;;;16.10;74.00;;;;;;4958800;28;20026;-67
2021/10/21 02:23:46;;;;;;;3.95;3.53;;;16.10;74.00;;;;;;4958013;28;20035;-65
2021/10/21 02:26:12;;;;;;;3.78;3.15;;;16.00;73.90;;;;;;4956472;28;20176;-67
2021/10/21 02:28:38;;;;;;;4.03;3.63;;;16.00;73.90;;;;;;4959068;28;20027;-67
2021/10/21 02:31:03;;;;;;;4.63;3.55;;;16.10;73.90;;;;;;4961384;28;20082;-67
2021/10/21 02:33:29;;;;;;;4.88;4.00;;;16.00;73.90;;;;;;4959756;28;20077;-66
2021/10/21 02:35:55;;;;;;;6.18;3.70;;;16.00;74.00;;;;;;4959803;28;20039;-67
2021/10/21 02:38:20;;;;;;;5.35;4.07;;;16.00;74.10;;;;;;4959188;28;20101;-67
2021/10/21 02:40:46;;;;;;;4.90;3.80;;;16.00;74.20;;;;;;4953844;28;20490;-67
2021/10/21 02:43:13;;;;;;;4.88;4.38;;;15.90;74.20;;;;;;4958525;28;20495;-67
2021/10/21 02:45:39;;;;;;;5.25;4.50;;;15.90;74.30;;;;;;4955998;28;20039;-66
2021/10/21 02:48:05;;;;;;;5.80;5.20;;;15.90;74.50;;;;;;4959584;28;20431;-67
2021/10/21 02:50:31;;;;;;;6.47;4.97;;;15.90;74.70;;;;;;4956315;28;20116;-67
2021/10/21 02:52:56;;;;;;;5.05;4.53;;;15.90;74.90;;;;;;4961342;28;20031;-67
2021/10/21 02:55:22;;;;;;;6.00;5.18;;;15.80;74.80;;;;;;4961112;28;20039;-67
2021/10/21 02:57:48;;;;;;;6.05;4.88;;;15.80;75.30;;;;;;4966509;28;20036;-66
2021/10/21 03:00:13;;;;;;;7.30;5.47;;;15.80;75.40;;;;;;4957525;28;20133;-67
2021/10/21 03:02:39;;;;;;;6.28;4.93;;;15.70;75.70;;;;;;4958233;28;20067;-66
2021/10/21 03:05:06;;;;;;;7.88;5.50;;;15.70;75.60;;;;;;4955196;28;20097;-66
2021/10/21 03:07:31;;;;;;;6.97;5.57;;;15.60;76.00;;;;;;4960253;28;20073;-67
2021/10/21 03:09:57;;;;;;;6.35;5.40;;;15.60;76.40;;;;;;4961211;28;20074;-67
2021/10/21 03:12:23;;;;;;;8.02;5.22;;;15.60;76.70;;;;;;4955486;28;20050;-68
2021/10/21 03:14:48;;;;;;;6.30;5.40;;;15.50;77.00;;;;;;4958452;28;20628;-67
2021/10/21 03:17:14;;;;;;;9.23;5.47;;;15.50;77.30;;;;;;4956229;28;20573;-66
2021/10/21 03:19:40;;;;;;;7.60;5.57;;;15.50;77.20;;;;;;4954618;28;20082;-68
2021/10/21 03:22:05;;;;;;;8.18;5.35;;;15.40;77.50;;;;;;4954654;28;20446;-67
2021/10/21 03:24:31;;;;;;;5.35;4.85;;;15.40;78.40;;;;;;4955834;28;20050;-66
2021/10/21 03:26:57;;;;;;;5.90;4.65;;;15.40;78.60;;;;;;4954291;28;20570;-67
2021/10/21 03:29:22;;;;;;;6.13;4.50;;;15.40;79.20;;;;;;4957498;28;20118;-67
2021/10/21 03:31:48;;;;;;;5.50;4.55;;;15.40;79.60;;;;;;4955219;28;20094;-65
2021/10/21 03:34:13;;;;;;;5.95;4.60;;;15.40;79.40;;;;;;4954352;28;20031;-66
2021/10/21 03:36:39;;;;;;;7.90;4.80;;;15.40;80.00;;;;;;4954240;28;20035;-67
2021/10/21 03:39:05;;;;;;;4.80;4.30;;;15.50;80.10;;;;;;4957172;28;20034;-66
2021/10/21 03:41:31;;;;;;;7.20;4.53;;;15.50;79.90;;;;;;4955004;28;20035;-65
2021/10/21 03:43:57;;;;;;;5.35;4.00;;;15.50;80.00;;;;;;4954451;28;20433;-66
2021/10/21 03:46:22;;;;;;;4.90;3.88;;;15.40;80.10;;;;;;4954406;28;20047;-66
2021/10/21 03:48:48;;;;;;;4.75;3.90;;;15.50;80.30;;;;;;4957304;28;20039;-66
2021/10/21 03:51:14;;;;;;;5.03;4.00;;;15.50;80.30;;;;;;4955913;28;20054;-65
2021/10/21 03:53:41;;;;;;;3.03;2.72;;;15.50;80.70;;;;;;4953976;28;20514;-66
2021/10/21 03:56:09;;;;;;;3.40;3.10;;;15.50;80.70;;;;;;4955057;28;20049;-65
2021/10/21 03:58:36;;;;;;;4.22;3.70;;;15.50;80.70;;;;;;4953194;28;20047;-65
2021/10/21 04:01:01;;;;;;;5.20;3.25;;;15.60;81.00;;;;;;4956109;28;20046;-65
2021/10/21 04:03:27;;;;;;;4.45;3.30;;;15.60;81.20;;;;;;4958407;28;20031;-64
2021/10/21 04:05:53;;;;;;;3.80;3.25;;;15.50;81.40;;;;;;4957055;28;20479;-68
2021/10/21 04:08:18;;;;;;;4.57;2.90;;;15.50;81.80;;;;;;4955308;28;20046;-64
2021/10/21 04:10:44;;;;;;;2.83;2.63;;;15.60;81.80;;;;;;4954734;28;20034;-68
2021/10/21 04:13:10;;;;;;;3.00;2.70;;;15.60;82.40;;;;;;4958668;28;20423;-67
2021/10/21 04:15:36;;;;;;;4.40;3.13;;;15.60;82.20;;;;;;4960516;28;20105;-65
2021/10/21 04:18:02;;;;;;;3.30;3.00;;;15.60;82.50;;;;;;4958426;28;20047;-68
2021/10/21 04:20:27;;;;;;;5.68;3.00;;;15.60;82.40;;;;;;4960803;28;20054;-67
2021/10/21 04:22:53;;;;;;;2.80;2.60;;;15.60;82.30;;;;;;4959792;28;20039;-67
2021/10/21 04:25:19;;;;;;;3.30;2.50;;;15.70;82.40;;;;;;4959886;28;20609;-65
2021/10/21 04:27:44;;;;;;;3.17;2.85;;;15.70;82.50;;;;;;4960175;28;20027;-68
2021/10/21 04:30:14;;;;;;;3.05;2.80;;;15.70;82.70;;;;;;4959442;28;20078;-67
2021/10/21 04:32:40;;;;;;;3.88;2.70;;;15.70;82.80;;;;;;4960598;28;20687;-65
2021/10/21 04:35:07;;;;;;;3.97;3.28;;;15.70;82.80;;;;;;4959465;28;20410;-66
2021/10/21 04:37:32;;;;;;;4.18;3.10;;;15.70;83.60;;;;;;4958723;28;20049;-68
2021/10/21 04:39:58;;;;;;;4.47;2.70;;;15.70;84.10;;;;;;4959531;28;20066;-68
2021/10/21 04:42:24;;;;;;;2.30;1.88;;;15.70;83.70;;;;;;4958199;28;20589;-68
2021/10/21 04:44:49;;;;;;;1.60;1.50;;;15.70;83.80;;;;;;4958517;28;20031;-68
2021/10/21 04:47:15;;;;;;;3.55;1.63;;;15.70;83.40;;;;;;4958858;28;20050;-66
2021/10/21 04:49:41;;;;;;;1.92;1.45;;;15.60;83.10;;;;;;4959541;28;20036;-66
2021/10/21 04:52:06;;;;;;;1.48;1.20;;;15.60;82.90;;;;;;4958614;28;20066;-68
2021/10/21 04:54:32;;;;;;;3.97;1.40;;;15.50;82.60;;;;;;4957898;28;20414;-66
2021/10/21 04:56:57;;;;;;;1.48;1.02;;;15.50;82.20;;;;;;4958674;28;20495;-68
2021/10/21 04:59:23;;;;;;;1.52;0.95;;;15.50;82.00;;;;;;4958791;28;20090;-66
2021/10/21 05:01:49;;;;;;;2.28;1.10;;;15.50;82.00;;;;;;4964931;28;20106;-67
2021/10/21 05:04:14;;;;;;;1.30;1.20;;;15.50;81.90;;;;;;4959589;28;20034;-65
2021/10/21 05:06:40;;;;;;;0.68;0.68;;;15.50;81.50;;;;;;4958544;28;20038;-65
2021/10/21 05:09:05;;;;;;;0.90;0.60;;;15.40;80.50;;;;;;4958753;28;20031;-65
2021/10/21 05:11:31;;;;;;;0.47;0.40;;;15.40;79.30;;;;;;4959460;28;20126;-65
2021/10/21 05:13:57;;;;;;;0.50;0.40;;;15.40;76.60;;;;;;4958503;28;20034;-68
2021/10/21 05:16:22;;;;;;;1.33;0.50;;;15.30;75.70;;;;;;4958892;28;20105;-68
2021/10/21 05:18:48;;;;;;;2.05;0.65;;;15.20;75.10;;;;;;4959334;28;20110;-66
2021/10/21 05:21:13;;;;;;;0.63;0.28;;;15.20;75.30;;;;;;4958939;28;20083;-68
2021/10/21 05:23:39;;;;;;;1.35;0.38;;;15.10;74.60;;;;;;4959274;28;20578;-68
2021/10/21 05:26:05;;;;;;;1.55;0.30;;;15.10;74.70;;;;;;4960326;28;20038;-67
2021/10/21 05:28:30;;;;;;;2.30;0.40;;;15.00;74.00;;;;;;4957920;28;20074;-67
2021/10/21 05:30:56;;;;;;;3.75;0.30;;;15.00;73.90;;;;;;4959277;28;20035;-68
2021/10/21 05:33:23;;;;;;;3.00;0.50;;;14.90;73.70;;;;;;4957063;28;20027;-69
2021/10/21 05:35:49;;;;;;;1.58;0.40;;;14.80;73.20;;;;;;4957351;28;20459;-67
2021/10/21 05:38:15;;;;;;;2.13;0.57;;;14.80;73.10;;;;;;4955104;28;20042;-67
2021/10/21 05:40:41;;;;;;;0.88;0.47;;;14.70;73.20;;;;;;4957137;28;20043;-67
2021/10/21 05:43:07;;;;;;;1.67;0.60;;;14.60;73.20;;;;;;4961367;28;20041;-67
2021/10/21 05:45:32;;;;;;;0.75;0.40;;;14.60;73.10;;;;;;4958680;28;20041;-67
2021/10/21 05:47:58;;;;;;;1.58;0.60;;;14.50;73.00;;;;;;4959204;28;20035;-67
2021/10/21 05:50:24;;;;;;;2.45;0.50;;;14.50;72.80;;;;;;4959593;28;20035;-67
2021/10/21 05:52:50;;;;;;;2.75;0.90;;;14.40;72.50;;;;;;4961696;28;20041;-67
2021/10/21 05:55:16;;;;;;;0.70;0.40;;;14.30;72.30;;;;;;4960907;28;20495;-67
2021/10/21 05:57:41;;;;;;;1.63;0.32;;;14.30;72.30;;;;;;4961457;28;20031;-67
2021/10/21 06:00:09;;;;;;;2.63;0.52;;;14.20;72.00;;;;;;4957296;28;20117;-67
2021/10/21 06:02:35;;;;;;;2.25;0.70;;;14.20;72.20;;;;;;4957220;28;20093;-68
2021/10/21 06:05:01;;;;;;;3.80;0.63;;;14.10;71.90;;;;;;4960389;28;20023;-66
2021/10/21 06:07:27;;;;;;;4.20;0.60;;;14.10;72.00;;;;;;4961085;28;20085;-68
2021/10/21 06:09:56;;;;;;;2.75;0.73;;;14.00;71.60;;;;;;4959806;28;20030;-68
2021/10/21 06:12:23;;;;;;;3.90;1.52;;;14.00;71.80;;;;;;4959449;28;20031;-67
2021/10/21 06:14:49;;;;;;;6.65;1.08;;;13.90;72.00;;;;;;4962546;28;20039;-67
2021/10/21 06:17:14;;;;;;;2.97;0.60;;;13.90;71.80;;;;;;4962578;28;20387;-68
2021/10/21 06:19:40;;;;;;;4.93;0.80;;;13.80;71.30;;;;;;4962112;28;20040;-67
2021/10/21 06:22:09;;;;;;;3.40;0.80;;;13.80;71.50;;;;;;4961066;28;20545;-68
2021/10/21 06:24:35;;;;;;;5.40;0.80;;;13.80;71.30;;;;;;4960684;28;20414;-68
2021/10/21 06:27:01;;;;;;;5.68;1.20;;;13.70;71.20;;;;;;4962420;28;20071;-67
2021/10/21 06:29:27;;;;;;;5.82;0.90;;;13.70;71.00;;;;;;4959236;28;20125;-68
2021/10/21 06:31:53;;;;;;;2.35;1.13;;;13.70;70.90;;;;;;4958918;28;20090;-68
2021/10/21 06:34:19;;;;;;;4.40;1.20;;;13.70;71.60;;;;;;4958065;28;20574;-68
2021/10/21 06:36:45;;;;;;;5.60;1.63;;;13.70;70.90;;;;;;4959743;28;20041;-68
2021/10/21 06:39:11;;;;;;;10.45;2.22;;;13.60;70.70;;;;;;4958557;28;20410;-68
2021/10/21 06:41:37;;;;;;;8.13;1.33;;;13.60;70.60;;;;;;4960737;28;20094;-68
2021/10/21 06:44:03;;;;;;;8.45;3.00;;;13.60;70.30;;;;;;4960339;28;20039;-68
2021/10/21 06:46:29;;;;;;;7.25;2.88;;;13.60;70.20;;;;;;4959261;28;20054;-68
2021/10/21 06:48:55;;;;;;;12.70;3.60;;;13.60;70.00;;;;;;4961178;28;20333;-68
2021/10/21 06:51:21;;;;;;;6.30;2.28;;;13.60;69.70;;;;;;4959747;28;20034;-68
2021/10/21 06:53:47;;;;;;;6.32;1.17;;;13.60;69.80;;;;;;4963877;28;20065;-68
2021/10/21 06:56:14;;;;;;;4.60;0.90;;;13.60;69.50;;;;;;4961039;28;20039;-67
2021/10/21 06:58:39;;;;;;;3.83;1.00;;;13.60;69.40;;;;;;4959063;28;20046;-67
2021/10/21 07:01:05;;;;;;;8.10;0.98;;;13.60;69.60;;;;;;4960495;28;20507;-68
2021/10/21 07:03:30;;;;;;;5.28;0.90;;;13.60;69.40;;;;;;4959952;28;20125;-68
2021/10/21 07:05:56;;;;;;;3.33;1.05;;;13.60;69.30;;;;;;4958944;28;20043;-68
2021/10/21 07:08:24;;;;;;;4.13;0.60;;;13.60;69.20;;;;;;4959926;28;20054;-68
2021/10/21 07:10:50;;;;;;;4.65;0.90;;;13.60;69.10;;;;;;4961296;28;20506;-68
2021/10/21 07:13:16;;;;;;;2.40;0.73;;;13.60;69.20;;;;;;4958084;28;20038;-68
2021/10/21 07:15:42;;;;;;;5.50;0.90;;;13.60;69.00;;;;;;4961217;28;20114;-68
2021/10/21 07:18:07;;;;;;;5.00;0.90;;;13.60;68.60;;;;;;4959920;28;20493;-68
2021/10/21 07:20:33;;;;;;;4.32;1.15;;;13.60;68.50;;;;;;4960209;28;20028;-68
2021/10/21 07:22:59;;;;;;;3.75;0.88;;;13.60;68.50;;;;;;4961700;28;20058;-68
2021/10/21 07:25:28;;;;;;;6.18;0.90;;;13.60;68.10;;;;;;4959662;28;20163;-68
2021/10/21 07:27:57;;;;;;;3.90;0.90;;;13.60;68.10;;;;;;4960714;28;20042;-68
2021/10/21 07:30:23;;;;;;;6.78;1.20;;;13.70;67.70;;;;;;4959629;28;20035;-67
2021/10/21 07:32:49;;;;;;;4.00;0.80;;;13.70;68.00;;;;;;4960440;28;20042;-68
2021/10/21 07:35:15;;;;;;;6.05;1.30;;;13.70;67.30;;;;;;4963759;28;20031;-68
2021/10/21 07:37:41;;;;;;;5.53;1.33;;;13.70;67.40;;;;;;4959208;28;20034;-68
2021/10/21 07:40:08;;;;;;;7.55;0.90;;;13.70;67.30;;;;;;4954641;28;20038;-68
2021/10/21 07:42:35;;;;;;;5.88;0.93;;;13.80;67.30;;;;;;4956814;28;20039;-68
2021/10/21 07:45:00;;;;;;;4.88;0.80;;;13.80;67.20;;;;;;4959007;28;20031;-68
2021/10/21 07:47:27;;;;;;;6.10;1.58;;;13.90;66.80;;;;;;4958809;28;20050;-68
2021/10/21 07:49:53;;;;;;;3.95;1.10;;;13.90;66.80;;;;;;4958099;28;20043;-68
2021/10/21 07:52:22;;;;;;;4.15;0.98;;;13.90;66.20;;;;;;4959655;28;20053;-68
2021/10/21 07:54:48;;;;;;;9.32;1.10;;;14.00;66.30;;;;;;4959232;28;20035;-68
2021/10/21 07:57:14;;;;;;;10.45;2.10;;;14.00;66.60;;;;;;4959817;28;20125;-69
2021/10/21 07:59:41;;;;;;;7.03;1.17;;;14.00;66.00;;;;;;4960704;28;20035;-68
2021/10/21 08:02:07;;;;;;;8.02;1.27;;;14.10;66.20;;;;;;4955803;28;20047;-67
2021/10/21 08:04:33;;;;;;;6.07;1.25;;;14.10;66.00;;;;;;4959974;28;20061;-68
2021/10/21 08:07:00;;;;;;;4.93;1.05;;;14.10;66.90;;;;;;4959248;28;20069;-68
2021/10/21 08:09:26;;;;;;;5.70;1.00;;;14.20;65.40;;;;;;4960526;28;20455;-68
2021/10/21 08:11:53;;;;;;;4.82;0.70;;;14.20;65.00;;;;;;4962586;28;20043;-69
2021/10/21 08:14:21;;;;;;;2.25;0.43;;;14.20;64.50;;;;;;4959727;28;20043;-68
2021/10/21 08:16:48;;;;;;;8.23;0.80;;;14.30;64.90;;;;;;4960741;28;20049;-68
2021/10/21 08:19:15;;;;;;;5.30;0.80;;;14.30;64.60;;;;;;4961124;28;20431;-68
2021/10/21 08:21:41;;;;;;;4.40;0.68;;;14.30;64.60;;;;;;4959423;28;20071;-67
2021/10/21 08:24:07;;;;;;;3.03;0.68;;;14.40;64.50;;;;;;4960693;28;20042;-68
2021/10/21 08:26:34;;;;;;;4.38;0.70;;;14.40;64.30;;;;;;4959570;28;20065;-68
2021/10/21 08:29:00;;;;;;;4.28;0.82;;;14.50;64.50;;;;;;4954258;28;20311;-68
2021/10/21 08:31:26;;;;;;;4.97;0.70;;;14.50;63.30;;;;;;4959825;28;20039;-68
2021/10/21 08:33:52;;;;;;;5.40;0.50;;;14.60;63.10;;;;;;4960645;28;20049;-68
2021/10/21 08:36:18;;;;;;;3.70;0.73;;;14.60;62.70;;;;;;4960628;28;20037;-68
2021/10/21 08:38:44;;;;;;;5.05;0.80;;;14.60;61.90;;;;;;4959982;28;20034;-68
2021/10/21 08:41:11;;;;;;;2.33;0.60;;;14.60;62.30;;;;;;4959585;28;20042;-69
2021/10/21 08:43:37;;;;;;;4.32;0.60;;;14.70;62.30;;;;;;4960053;28;20422;-68
2021/10/21 08:46:04;;;;;;;2.55;0.40;;;14.70;62.00;;;;;;4959232;28;20047;-68
2021/10/21 08:48:30;;;;;;;5.43;0.70;;;14.70;62.20;;;;;;4959458;28;20034;-69
2021/10/21 08:51:01;;;;;;;2.85;0.75;;;14.80;62.20;;;;;;4959364;28;20118;-68
2021/10/21 08:53:27;;;;;;;3.53;0.70;;;14.80;62.20;;;;;;4958765;28;20039;-68
2021/10/21 08:55:53;;;;;;;2.22;0.50;;;14.80;62.50;;;;;;4960209;28;20534;-68
2021/10/21 08:58:19;;;;;;;2.30;0.75;;;14.80;62.30;;;;;;4960031;28;20061;-69
2021/10/21 09:00:52;;;;;;;5.72;0.70;;;14.80;63.30;;;;;;4960676;28;20596;-69
2021/10/21 09:03:38;;;;;;;3.60;0.70;;;14.90;63.10;;;;;;4960948;28;20035;-69
2021/10/21 09:08:48;;;;;;;4.28;0.60;;;14.90;62.10;;;;;;4959653;28;20031;-69
2021/10/21 09:11:20;;;;;;;6.78;0.45;;;15.10;61.70;;;;;;4958917;28;20042;-68
2021/10/21 09:13:46;;;;;;;1.45;0.50;;;15.10;60.80;;;;;;4959619;28;20038;-69
2021/10/21 09:16:11;;;;;;;1.58;0.50;;;15.20;61.70;;;;;;4959285;28;20406;-68
2021/10/21 09:18:47;;;;;;;2.40;0.70;;;15.30;61.50;;;;;;4963362;28;20050;-69
2021/10/21 09:21:33;;;;;;;3.30;0.70;;;15.30;59.50;;;;;;4963313;28;20042;-68
2021/10/21 09:24:39;;;;;;;4.85;0.80;;;15.40;58.90;;;;;;4961635;28;20114;-68
2021/10/21 09:27:09;;;;;;;3.88;1.30;;;15.40;58.60;;;;;;4963197;28;20031;-68
2021/10/21 09:29:46;;;;;;;5.13;0.80;;;15.50;59.00;;;;;;4959502;28;20317;-68
2021/10/21 09:32:16;;;;;;;3.25;0.50;;;15.50;57.80;;;;;;4961103;28;20039;-68
2021/10/21 09:34:54;;;;;;;1.02;0.77;;;15.50;58.80;;;;;;4961615;28;20039;-68
2021/10/21 09:37:23;;;;;;;2.92;0.70;;;15.50;58.20;;;;;;4963098;28;20133;-69
2021/10/21 09:39:55;;;;;;;2.35;0.50;;;15.60;59.00;;;;;;4960801;28;20042;-68
2021/10/21 09:42:28;;;;;;;3.72;1.05;;;15.60;57.80;;;;;;4961678;28;20089;-68
2021/10/21 09:45:16;;;;;;;3.75;0.60;;;15.60;57.80;;;;;;4960945;28;20036;-68
2021/10/21 09:47:57;;;;;;;1.80;0.52;;;15.60;57.40;;;;;;4960360;28;20050;-68
2021/10/21 09:50:29;;;;;;;2.42;0.57;;;15.70;57.50;;;;;;4959940;28;20046;-68
2021/10/21 09:53:20;;;;;;;0.90;0.30;;;15.70;58.10;;;;;;4961717;28;20063;-69
2021/10/21 09:56:06;;;;;;;3.78;0.45;;;15.80;56.70;;;;;;4978380;28;20043;-68
2021/10/21 09:58:35;;;;;;;1.45;0.28;;;15.80;55.50;;;;;;4960974;28;20411;-68
2021/10/21 10:01:07;;;;;;;0.68;0.38;;;15.80;57.00;;;;;;4962241;28;20058;-68
2021/10/21 10:03:34;;;;;;;2.47;0.45;;;15.90;55.10;;;;;;4959321;28;20043;-68
2021/10/21 10:06:00;;;;;;;2.97;0.43;;;15.90;55.50;;;;;;4958987;28;20702;-69
2021/10/21 10:08:30;;;;;;;2.38;0.30;;;15.90;54.80;;;;;;4959251;28;20041;-68
2021/10/21 10:11:01;;;;;;;0.98;0.60;;;15.90;55.30;;;;;;4961729;28;20034;-69
2021/10/21 10:13:28;;;;;;;2.40;0.25;;;15.90;55.70;;;;;;4961698;28;20484;-68
2021/10/21 10:15:55;;;;;;;2.58;0.52;;;16.00;55.70;;;;;;4961389;28;20035;-68
2021/10/21 10:18:44;;;;;;;1.85;0.55;;;16.00;56.70;;;;;;4961115;28;20027;-68
2021/10/21 10:21:12;;;;;;;3.22;0.40;;;16.00;53.80;;;;;;4963035;28;20108;-68
2021/10/21 10:23:53;;;;;;;5.30;0.70;;;16.00;55.10;;;;;;4961717;28;20423;-68
2021/10/21 10:26:46;;;;;;;1.48;0.45;;;16.10;52.00;;;;;;4962316;28;20498;-68
2021/10/21 10:29:35;;;;;;;5.53;0.60;;;16.10;52.60;;;;;;4961985;28;20118;-68
2021/10/21 10:32:04;;;;;;;3.50;0.40;;;16.10;54.60;;;;;;4963041;28;20520;-69
2021/10/21 10:34:33;;;;;;;2.03;0.30;;;16.10;53.70;;;;;;4961404;28;20413;-68
2021/10/21 10:37:14;;;;;;;2.08;0.40;;;16.10;54.30;;;;;;4959895;28;20031;-68
2021/10/21 10:39:56;;;;;;;1.50;0.30;;;16.10;53.40;;;;;;4959219;28;20031;-68
2021/10/21 10:42:45;;;;;;;1.23;0.40;;;16.00;52.40;;;;;;4960993;28;20026;-69
2021/10/21 10:45:12;;;;;;;2.08;0.32;;;16.00;53.90;;;;;;4953773;28;20034;-68
2021/10/21 10:47:48;;;;;;;4.25;0.50;;;16.00;54.30;;;;;;4959193;28;20039;-69
2021/10/21 10:50:16;;;;;;;1.65;0.40;;;16.00;54.30;;;;;;4962187;28;20495;-69
2021/10/21 10:52:51;;;;;;;2.22;0.50;;;16.00;54.10;;;;;;4960860;28;20054;-68
2021/10/21 10:55:18;;;;;;;1.05;0.20;;;16.00;54.50;;;;;;4961459;28;20118;-68
2021/10/21 10:57:43;;;;;;;2.53;0.40;;;15.90;53.80;;;;;;4962452;28;20053;-67
2021/10/21 11:00:37;;;;;;;1.95;0.20;;;16.00;54.30;;;;;;4960689;28;20438;-68
2021/10/21 11:03:04;;;;;;;1.08;0.30;;;15.90;52.40;;;;;;4966494;28;20410;-68
2021/10/21 11:05:47;;;;;;;2.05;0.40;;;15.90;55.00;;;;;;4959900;28;20033;-69
2021/10/21 11:08:16;;;;;;;0.93;0.20;;;16.00;54.70;;;;;;4960120;28;20043;-68
2021/10/21 11:10:42;;;;;;;1.70;0.28;;;16.00;54.40;;;;;;4961275;28;20058;-68
2021/10/21 11:13:37;;;;;;;2.45;0.28;;;16.10;54.50;;;;;;4962276;28;20511;-67
2021/10/21 11:16:06;;;;;;;;;;;16.10;53.10;;;;;;4962926;28;20050;-68
2021/10/21 11:18:38;;;;;;;0.82;0.30;;;16.20;52.70;;;;;;4965412;28;20045;-68
2021/10/21 11:21:05;;;;;;;1.88;0.40;;;16.20;53.40;;;;;;4961915;28;20031;-68
2021/10/21 11:23:31;;;;;;;1.05;0.28;;;16.30;54.10;;;;;;4959902;28;20042;-68
2021/10/21 11:26:03;;;;;;;1.40;0.40;;;16.30;54.00;;;;;;4961760;28;20395;-68
2021/10/21 11:28:31;;;;;;;1.00;0.20;;;16.40;52.90;;;;;;4959127;28;20031;-68
2021/10/21 11:30:57;;;;;;;1.02;0.35;;;16.40;53.20;;;;;;4960229;28;20031;-68
2021/10/21 11:33:25;;;;;;;2.15;0.30;;;16.50;53.10;;;;;;4959889;28;20035;-68
2021/10/21 11:35:52;;;;;;;2.47;0.30;;;16.50;53.00;;;;;;4957698;28;20573;-68
2021/10/21 11:38:20;;;;;;;2.17;0.40;;;16.50;53.30;;;;;;4961427;28;20073;-68
2021/10/21 11:40:51;;;;;;;0.50;0.20;;;16.50;53.10;;;;;;4960985;28;20239;-68
2021/10/21 11:43:22;;;;;;;1.02;0.20;;;16.50;51.70;;;;;;4960691;28;20035;-68
2021/10/21 11:45:59;;;;;;;0.57;0.20;;;16.40;52.20;;;;;;4960974;28;20568;-68
2021/10/21 11:48:28;;;;;;;2.53;0.20;;;16.30;50.80;;;;;;4960418;28;20028;-67
2021/10/21 11:50:54;;;;;;;4.78;0.40;;;16.30;51.20;;;;;;4961310;28;20123;-68
2021/10/21 11:53:21;;;;;;;2.05;0.25;;;16.20;50.90;;;;;;4961799;28;20149;-68
2021/10/21 11:55:49;;;;;;;1.67;0.25;;;16.10;50.40;;;;;;4960074;28;20034;-68
2021/10/21 11:58:23;;;;;;;2.03;0.52;;;16.10;50.70;;;;;;4960213;28;20035;-68
2021/10/21 12:00:51;;;;;;;1.58;0.50;;;16.00;50.40;;;;;;4959864;28;20043;-68
2021/10/21 12:03:17;;;;;;;0.85;0.30;;;15.90;50.90;;;;;;4960266;28;20035;-68
2021/10/21 12:05:44;;;;;;;0.93;0.30;;;15.90;50.10;;;;;;4960825;28;20126;-68
2021/10/21 12:08:11;;;;;;;0.60;0.20;;;15.80;50.10;;;;;;4960890;28;20035;-68
2021/10/21 12:10:40;;;;;;;0.73;0.20;;;15.70;51.20;;;;;;4961066;28;20042;-68
2021/10/21 12:13:07;;;;;;;1.58;0.20;;;15.70;51.10;;;;;;4961308;28;20114;-68
2021/10/21 12:15:38;;;;;;;0.95;0.13;;;15.70;51.10;;;;;;4960349;28;20046;-68
2021/10/21 12:18:06;;;;;;;0.85;0.20;;;15.60;51.60;;;;;;4960907;28;20027;-68
2021/10/21 12:20:39;;;;;;;1.95;0.47;;;15.60;52.00;;;;;;4959916;28;20043;-68
2021/10/21 12:23:26;;;;;;;3.35;0.85;;;15.60;52.50;;;;;;4960779;28;20039;-68
2021/10/21 12:26:05;;;;;;;3.20;0.77;;;15.60;52.40;;;;;;4960105;28;20050;-68
2021/10/21 12:28:40;;;;;;;1.30;0.25;;;15.60;53.10;;;;;;4960522;28;20027;-69
2021/10/21 12:31:23;;;;;;;4.83;0.30;;;15.60;52.00;;;;;;4960837;28;20184;-68
2021/10/21 12:33:51;;;;;;;0.82;0.30;;;15.70;51.90;;;;;;4965481;28;20642;-68
2021/10/21 12:36:22;;;;;;;1.00;0.40;;;15.70;51.50;;;;;;4965754;28;20532;-68
2021/10/21 12:38:51;;;;;;;3.25;0.40;;;15.70;50.60;;;;;;4959808;28;20042;-68
2021/10/21 12:41:18;;;;;;;2.45;0.30;;;15.80;50.90;;;;;;4960584;28;20117;-68
2021/10/21 12:43:57;;;;;;;2.00;0.30;;;15.90;52.20;;;;;;4960604;28;20043;-68
2021/10/21 12:46:30;;;;;;;1.83;0.30;;;15.90;52.60;;;;;;4960973;28;20045;-68
2021/10/21 12:49:16;;;;;;;2.20;0.60;;;16.00;52.00;;;;;;4960434;28;20398;-68
2021/10/21 12:51:44;;;;;;;1.42;0.30;;;16.10;51.50;;;;;;4963375;28;20035;-68
2021/10/21 12:54:23;;;;;;;1.83;0.30;;;16.20;51.80;;;;;;4964502;28;20444;-68
2021/10/21 12:56:59;;;;;;;2.05;0.40;;;16.30;52.00;;;;;;4964359;28;20143;-68